Time;durP1;ratioP1;P1;durP2;ratioP2;P2;SDS_P1;SDS_P2;PMS_P1;PMS_P2;Temp;Humidity;BMP_temperature;BMP_pressure;BME280_temperature;BME280_humidity;BME280_pressure;Samples;Min_cycle;Max_cycle;Signal;HPM_P1;HPM_P2
2023/07/11 00:01:09;;;;;;;6.07;4.03;;;18.00;99.90;;;;;;492335;241;29442;-80
2023/07/11 00:03:11;;;;;;;4.87;4.17;;;18.00;99.90;;;;;;480676;247;28765;-79
2023/07/11 00:05:12;;;;;;;4.27;3.73;;;17.90;99.90;;;;;;492323;241;28932;-79
2023/07/11 00:07:13;;;;;;;4.80;4.03;;;17.90;99.90;;;;;;492262;241;28821;-80
2023/07/11 00:09:14;;;;;;;4.07;3.67;;;17.90;99.90;;;;;;492318;241;28813;-80
2023/07/11 00:11:16;;;;;;;4.27;3.73;;;17.80;99.90;;;;;;480665;247;28756;-79
2023/07/11 00:13:17;;;;;;;4.27;3.87;;;17.70;99.90;;;;;;492263;241;28809;-79
2023/07/11 00:15:18;;;;;;;4.40;4.00;;;17.70;99.90;;;;;;492282;241;28892;-80
2023/07/11 00:17:19;;;;;;;4.67;4.20;;;17.70;99.90;;;;;;480662;247;28866;-80
2023/07/11 00:19:21;;;;;;;4.10;3.70;;;17.70;99.90;;;;;;492265;241;28821;-79
2023/07/11 00:21:22;;;;;;;4.23;3.77;;;17.70;99.90;;;;;;492340;241;29378;-80
2023/07/11 00:23:23;;;;;;;5.20;4.37;;;17.70;99.90;;;;;;480623;247;29305;-80
2023/07/11 00:25:24;;;;;;;5.07;4.03;;;17.70;99.90;;;;;;492266;241;29360;-80
2023/07/11 00:27:26;;;;;;;4.63;3.93;;;17.60;99.90;;;;;;480618;247;28761;-79
2023/07/11 00:29:27;;;;;;;4.70;4.20;;;17.60;99.90;;;;;;492290;241;28823;-80
2023/07/11 00:31:28;;;;;;;5.27;4.20;;;17.50;99.90;;;;;;492211;241;28950;-80
2023/07/11 00:33:29;;;;;;;5.47;4.20;;;17.50;99.90;;;;;;492268;241;28868;-79
2023/07/11 00:35:31;;;;;;;5.30;4.60;;;17.50;99.90;;;;;;480615;247;28759;-80
2023/07/11 00:37:32;;;;;;;5.43;4.23;;;17.50;99.90;;;;;;492255;241;28823;-79
2023/07/11 00:39:33;;;;;;;7.23;4.70;;;17.50;99.90;;;;;;492266;241;28848;-80
2023/07/11 00:41:34;;;;;;;4.60;3.80;;;17.50;99.90;;;;;;480653;247;28881;-80
2023/07/11 00:43:36;;;;;;;5.03;4.57;;;17.40;99.90;;;;;;492308;241;29282;-79
2023/07/11 00:45:37;;;;;;;4.43;4.00;;;17.40;99.90;;;;;;480621;247;29264;-79
2023/07/11 00:47:38;;;;;;;5.00;4.50;;;17.40;99.90;;;;;;492265;241;29294;-80
2023/07/11 00:49:40;;;;;;;5.33;4.27;;;17.50;99.90;;;;;;480638;247;29339;-79
2023/07/11 00:51:41;;;;;;;5.37;4.50;;;17.50;99.90;;;;;;492329;241;28872;-80
2023/07/11 00:53:42;;;;;;;5.63;4.30;;;17.50;99.90;;;;;;480650;247;28808;-80
2023/07/11 00:55:43;;;;;;;7.70;4.30;;;17.30;99.90;;;;;;492286;241;28840;-80
2023/07/11 00:57:44;;;;;;;4.07;3.67;;;17.40;99.90;;;;;;480643;247;28856;-80
2023/07/11 00:59:46;;;;;;;6.13;4.57;;;17.30;99.90;;;;;;492308;241;28845;-80
2023/07/11 01:01:47;;;;;;;4.90;4.17;;;17.30;99.90;;;;;;480675;247;28846;-79
2023/07/11 01:03:48;;;;;;;4.40;4.00;;;17.30;99.90;;;;;;492308;241;28822;-79
2023/07/11 01:05:49;;;;;;;7.03;4.70;;;17.30;99.90;;;;;;480648;247;28792;-79
2023/07/11 01:07:51;;;;;;;5.60;4.87;;;17.30;99.90;;;;;;492274;241;28933;-78
2023/07/11 01:09:52;;;;;;;4.83;4.33;;;17.30;99.90;;;;;;480659;247;29221;-79
2023/07/11 01:11:53;;;;;;;5.20;4.10;;;17.20;99.90;;;;;;492307;241;29326;-79
2023/07/11 01:13:54;;;;;;;4.80;3.87;;;17.30;99.90;;;;;;480654;247;28804;-80
2023/07/11 01:15:56;;;;;;;6.27;4.60;;;17.30;99.90;;;;;;492282;241;28983;-80
2023/07/11 01:17:57;;;;;;;5.43;3.97;;;17.20;99.90;;;;;;492297;241;28838;-80
2023/07/11 01:19:58;;;;;;;5.93;4.63;;;17.20;99.90;;;;;;480664;247;28820;-80
2023/07/11 01:21:59;;;;;;;5.93;4.10;;;17.20;99.90;;;;;;492311;241;28968;-80
2023/07/11 01:24:01;;;;;;;4.83;4.43;;;17.30;99.90;;;;;;480661;247;28729;-80
2023/07/11 01:26:02;;;;;;;8.03;3.80;;;17.20;99.90;;;;;;492320;241;28879;-79
2023/07/11 01:28:03;;;;;;;4.50;4.10;;;17.20;99.90;;;;;;480689;247;28739;-79
2023/07/11 01:30:04;;;;;;;4.70;3.83;;;17.10;99.90;;;;;;492339;241;28851;-80
2023/07/11 01:32:06;;;;;;;6.33;4.40;;;17.10;99.90;;;;;;492367;241;29345;-80
2023/07/11 01:34:07;;;;;;;4.27;3.87;;;17.10;99.90;;;;;;480660;247;29186;-80
2023/07/11 01:36:08;;;;;;;4.93;4.43;;;17.10;99.90;;;;;;492242;241;29437;-80
2023/07/11 01:38:09;;;;;;;5.07;4.27;;;17.10;99.90;;;;;;480507;247;29264;-80
2023/07/11 01:40:11;;;;;;;7.00;4.80;;;17.00;99.90;;;;;;492259;241;28813;-80
2023/07/11 01:42:12;;;;;;;6.00;4.07;;;17.00;99.90;;;;;;480658;247;28844;-80
2023/07/11 01:44:13;;;;;;;4.63;4.17;;;16.90;99.90;;;;;;492216;241;28808;-80
2023/07/11 01:46:14;;;;;;;5.67;4.57;;;16.80;99.90;;;;;;480639;247;28796;-80
2023/07/11 01:48:16;;;;;;;5.47;4.27;;;16.80;99.90;;;;;;492262;241;28820;-80
2023/07/11 01:50:17;;;;;;;6.00;4.17;;;16.70;99.90;;;;;;480632;247;28876;-79
2023/07/11 01:52:18;;;;;;;5.57;4.40;;;16.70;99.90;;;;;;492334;241;28978;-79
2023/07/11 01:54:19;;;;;;;7.80;4.27;;;16.70;99.90;;;;;;480654;247;28832;-79
2023/07/11 01:56:21;;;;;;;5.57;4.70;;;16.70;99.90;;;;;;492317;241;29349;-79
2023/07/11 01:58:22;;;;;;;5.53;5.03;;;16.70;99.90;;;;;;480657;247;29292;-80
2023/07/11 02:00:23;;;;;;;6.77;5.60;;;16.70;99.90;;;;;;492324;241;29370;-80
2023/07/11 02:02:24;;;;;;;6.67;5.43;;;16.70;99.90;;;;;;480662;247;28781;-80
2023/07/11 02:04:26;;;;;;;5.50;4.40;;;16.60;99.90;;;;;;492306;241;28831;-80
2023/07/11 02:06:28;;;;;;;6.50;4.63;;;16.60;99.90;;;;;;492295;241;28843;-80
2023/07/11 02:08:28;;;;;;;7.50;5.00;;;16.60;99.90;;;;;;480619;247;28734;-80
2023/07/11 02:10:29;;;;;;;7.50;4.93;;;16.60;99.90;;;;;;492287;241;28853;-80
2023/07/11 02:12:31;;;;;;;5.00;4.50;;;16.60;99.90;;;;;;480677;247;28869;-80
2023/07/11 02:14:32;;;;;;;7.57;4.90;;;16.70;99.90;;;;;;492299;241;28809;-79
2023/07/11 02:16:33;;;;;;;5.30;4.43;;;16.70;99.90;;;;;;480397;247;28761;-80
2023/07/11 02:18:35;;;;;;;5.33;4.70;;;16.70;99.90;;;;;;492298;241;28826;-80
2023/07/11 02:20:36;;;;;;;5.93;4.80;;;16.80;99.90;;;;;;492278;241;29306;-80
2023/07/11 02:22:37;;;;;;;4.73;3.67;;;16.70;99.90;;;;;;480668;247;29411;-80
2023/07/11 02:24:38;;;;;;;6.90;4.70;;;16.70;99.90;;;;;;492334;241;29281;-79
2023/07/11 02:26:39;;;;;;;5.60;4.60;;;16.70;99.90;;;;;;492313;241;29357;-79
2023/07/11 02:28:41;;;;;;;6.83;4.00;;;16.60;99.90;;;;;;480658;247;28808;-80
2023/07/11 02:30:42;;;;;;;5.93;4.40;;;16.60;99.90;;;;;;492287;241;28853;-80
2023/07/11 02:32:43;;;;;;;5.70;4.20;;;16.70;99.90;;;;;;480658;247;28766;-79
2023/07/11 02:34:44;;;;;;;5.63;4.53;;;16.70;99.90;;;;;;492303;241;28817;-80
2023/07/11 02:36:46;;;;;;;5.83;4.30;;;16.60;99.90;;;;;;480674;247;28834;-79
2023/07/11 02:38:47;;;;;;;5.30;4.17;;;16.60;99.90;;;;;;492334;241;28802;-80
2023/07/11 02:40:48;;;;;;;5.33;4.30;;;16.60;99.90;;;;;;492349;241;28934;-80
2023/07/11 02:42:49;;;;;;;6.60;4.93;;;16.60;99.90;;;;;;480691;247;28792;-79
2023/07/11 02:44:51;;;;;;;5.20;4.00;;;16.60;99.90;;;;;;492322;241;28893;-80
2023/07/11 02:46:52;;;;;;;5.00;4.53;;;16.60;99.90;;;;;;480671;247;29413;-80
2023/07/11 02:48:53;;;;;;;5.27;4.77;;;16.50;99.90;;;;;;492284;241;29429;-80
2023/07/11 02:50:55;;;;;;;4.80;4.30;;;16.40;99.90;;;;;;480658;247;29277;-80
2023/07/11 02:52:56;;;;;;;4.70;4.17;;;16.40;99.90;;;;;;492311;241;28884;-79
2023/07/11 02:54:57;;;;;;;5.33;4.50;;;16.50;99.90;;;;;;492330;241;28829;-79
2023/07/11 02:56:58;;;;;;;6.03;4.50;;;16.50;99.90;;;;;;480617;247;28791;-79
2023/07/11 02:59:00;;;;;;;5.10;4.03;;;16.50;99.90;;;;;;492131;241;28880;-79
2023/07/11 03:01:01;;;;;;;5.43;4.33;;;16.50;99.90;;;;;;480586;247;28872;-80
2023/07/11 03:03:02;;;;;;;5.60;4.40;;;16.50;99.90;;;;;;492259;241;28820;-80
2023/07/11 03:05:03;;;;;;;6.50;5.20;;;16.50;99.90;;;;;;480673;247;28816;-80
2023/07/11 03:07:05;;;;;;;4.50;4.10;;;16.50;99.90;;;;;;492297;241;28857;-79
2023/07/11 03:09:06;;;;;;;4.57;4.17;;;16.50;99.90;;;;;;492314;241;28931;-79
2023/07/11 03:11:07;;;;;;;4.90;3.97;;;16.40;99.90;;;;;;480622;247;29265;-79
2023/07/11 03:13:08;;;;;;;4.60;4.10;;;16.40;99.90;;;;;;492281;241;29404;-80
2023/07/11 03:15:10;;;;;;;5.33;3.87;;;16.40;99.90;;;;;;492318;241;29361;-79
2023/07/11 03:17:11;;;;;;;5.17;4.13;;;16.40;99.90;;;;;;480678;247;28796;-80
2023/07/11 03:19:12;;;;;;;4.97;4.30;;;16.40;99.90;;;;;;492311;241;28819;-80
2023/07/11 03:21:13;;;;;;;5.83;3.80;;;16.40;99.90;;;;;;492318;241;28933;-79
2023/07/11 03:23:15;;;;;;;5.33;4.83;;;16.40;99.90;;;;;;480658;247;28765;-80
2023/07/11 03:25:16;;;;;;;5.17;4.50;;;16.40;99.90;;;;;;492341;241;28962;-80
2023/07/11 03:27:17;;;;;;;5.97;4.43;;;16.40;99.90;;;;;;480663;247;28779;-79
2023/07/11 03:29:18;;;;;;;5.83;4.67;;;16.40;99.90;;;;;;492297;241;28804;-79
2023/07/11 03:31:20;;;;;;;5.20;4.70;;;16.40;99.90;;;;;;480671;247;29330;-79
2023/07/11 03:33:21;;;;;;;4.37;3.97;;;16.40;99.90;;;;;;492290;241;29499;-79
2023/07/11 03:35:22;;;;;;;9.23;5.00;;;16.40;99.90;;;;;;480685;247;29242;-80
2023/07/11 03:37:23;;;;;;;5.90;4.23;;;16.40;99.90;;;;;;492320;241;29447;-79
2023/07/11 03:39:25;;;;;;;5.97;4.23;;;16.40;99.90;;;;;;492315;241;28792;-80
2023/07/11 03:41:26;;;;;;;5.00;4.43;;;16.40;99.90;;;;;;480632;247;28868;-80
2023/07/11 03:43:27;;;;;;;5.37;4.40;;;16.40;99.90;;;;;;492329;239;28825;-80
2023/07/11 03:45:28;;;;;;;5.67;5.03;;;16.40;99.90;;;;;;480693;247;28803;-81
2023/07/11 03:47:30;;;;;;;4.87;4.13;;;16.50;99.90;;;;;;492334;241;28876;-80
2023/07/11 03:49:31;;;;;;;4.87;4.37;;;16.40;99.90;;;;;;480677;247;28827;-80
2023/07/11 03:51:32;;;;;;;4.97;4.50;;;16.40;99.90;;;;;;492342;241;28864;-80
2023/07/11 03:53:33;;;;;;;6.80;4.50;;;16.50;99.90;;;;;;480663;247;29217;-81
2023/07/11 03:55:35;;;;;;;4.93;4.20;;;16.50;99.90;;;;;;492332;241;29305;-80
2023/07/11 03:57:36;;;;;;;6.13;5.00;;;16.60;99.90;;;;;;480687;247;29339;-79
2023/07/11 03:59:37;;;;;;;5.10;4.30;;;16.60;99.90;;;;;;492325;241;29299;-79
2023/07/11 04:01:38;;;;;;;4.63;4.23;;;16.70;99.90;;;;;;480660;247;28765;-79
2023/07/11 04:03:40;;;;;;;5.90;4.70;;;16.70;99.90;;;;;;492259;241;28866;-80
2023/07/11 04:05:41;;;;;;;4.93;4.43;;;16.70;99.90;;;;;;480642;247;28832;-79
2023/07/11 04:07:42;;;;;;;5.30;4.80;;;16.60;99.90;;;;;;492319;241;28880;-79
2023/07/11 04:09:43;;;;;;;6.07;4.40;;;16.60;99.90;;;;;;480674;247;28826;-80
2023/07/11 04:11:45;;;;;;;4.87;4.47;;;16.60;99.90;;;;;;492279;241;28859;-80
2023/07/11 04:13:46;;;;;;;4.13;3.83;;;16.60;99.90;;;;;;480661;247;28812;-79
2023/07/11 04:15:47;;;;;;;5.33;4.50;;;16.60;99.90;;;;;;492329;241;28854;-80
2023/07/11 04:17:48;;;;;;;5.27;4.77;;;16.70;99.90;;;;;;480656;247;28837;-80
2023/07/11 04:19:50;;;;;;;4.70;4.20;;;16.80;99.90;;;;;;492315;241;29347;-80
2023/07/11 04:21:51;;;;;;;5.10;4.60;;;17.00;99.90;;;;;;480617;247;29240;-80
2023/07/11 04:23:52;;;;;;;6.30;4.87;;;17.00;99.90;;;;;;492253;241;29342;-80
2023/07/11 04:25:54;;;;;;;5.60;4.40;;;17.10;99.90;;;;;;492258;241;28924;-80
2023/07/11 04:27:56;;;;;;;4.47;4.07;;;17.10;99.90;;;;;;480667;247;28760;-79
2023/07/11 04:29:56;;;;;;;5.17;4.40;;;17.10;99.90;;;;;;492208;241;28832;-79
2023/07/11 04:31:57;;;;;;;4.40;4.00;;;17.20;99.90;;;;;;492276;241;28858;-80
2023/07/11 04:33:58;;;;;;;4.90;4.40;;;17.20;99.90;;;;;;480625;247;28732;-80
2023/07/11 04:36:00;;;;;;;4.30;3.80;;;17.20;99.90;;;;;;492283;241;28979;-80
2023/07/11 04:38:01;;;;;;;5.00;4.50;;;17.30;99.90;;;;;;480644;247;28779;-80
2023/07/11 04:40:03;;;;;;;4.50;4.10;;;17.30;99.90;;;;;;492274;241;28818;-80
2023/07/11 04:42:03;;;;;;;4.50;4.10;;;17.30;99.90;;;;;;492185;241;29289;-79
2023/07/11 04:44:05;;;;;;;4.23;3.83;;;17.30;99.90;;;;;;480652;247;29319;-79
2023/07/11 04:46:06;;;;;;;5.70;4.80;;;17.30;99.90;;;;;;492257;241;29328;-79
2023/07/11 04:48:07;;;;;;;4.50;4.10;;;17.30;99.90;;;;;;480669;247;29345;-79
2023/07/11 04:50:08;;;;;;;5.73;4.50;;;17.30;99.90;;;;;;492325;241;28844;-80
2023/07/11 04:52:11;;;;;;;4.43;4.03;;;17.30;99.90;;;;;;492307;241;28896;-80
2023/07/11 04:54:11;;;;;;;4.50;4.10;;;17.50;99.90;;;;;;480611;247;28729;-80
2023/07/11 04:56:12;;;;;;;4.83;4.33;;;17.50;99.90;;;;;;492251;241;28852;-79
2023/07/11 04:58:13;;;;;;;4.50;4.10;;;17.60;99.90;;;;;;480658;247;28765;-79
2023/07/11 05:00:15;;;;;;;4.53;4.10;;;17.60;99.90;;;;;;492293;241;28908;-79
2023/07/11 05:02:16;;;;;;;4.20;3.90;;;17.70;99.90;;;;;;480645;247;28836;-79
2023/07/11 05:04:17;;;;;;;5.50;4.40;;;17.70;99.90;;;;;;492298;241;28802;-80
2023/07/11 05:06:19;;;;;;;5.53;4.80;;;17.80;99.90;;;;;;480656;247;29182;-80
2023/07/11 05:08:20;;;;;;;5.20;4.27;;;17.90;99.90;;;;;;492319;241;29360;-80
2023/07/11 05:10:21;;;;;;;4.10;3.70;;;18.00;99.90;;;;;;492333;241;29293;-78
2023/07/11 05:12:22;;;;;;;4.67;4.27;;;18.00;99.90;;;;;;480659;247;29245;-79
2023/07/11 05:14:23;;;;;;;4.70;4.00;;;18.10;99.90;;;;;;492310;241;28800;-79
2023/07/11 05:16:27;;;;;;;4.47;4.07;;;18.00;99.90;;;;;;480641;247;28872;-80
2023/07/11 05:18:26;;;;;;;4.30;3.90;;;18.10;99.90;;;;;;492150;241;28923;-80
2023/07/11 05:20:27;;;;;;;6.10;3.87;;;18.20;99.90;;;;;;480659;247;28725;-80
2023/07/11 05:22:28;;;;;;;5.20;4.17;;;18.30;99.90;;;;;;492283;241;28839;-78
2023/07/11 05:24:30;;;;;;;4.97;4.17;;;18.30;99.90;;;;;;480629;247;28784;-80
2023/07/11 05:26:31;;;;;;;5.30;4.40;;;18.40;99.90;;;;;;492275;241;28955;-79
2023/07/11 05:28:32;;;;;;;4.70;4.10;;;18.40;99.90;;;;;;480651;247;28880;-80
2023/07/11 05:30:33;;;;;;;4.50;4.10;;;18.30;99.90;;;;;;492306;241;28891;-79
2023/07/11 05:32:35;;;;;;;4.60;4.13;;;18.40;99.90;;;;;;480650;247;29240;-79
2023/07/11 05:34:36;;;;;;;4.53;4.10;;;18.40;99.90;;;;;;492287;241;29285;-78
2023/07/11 05:36:37;;;;;;;4.80;4.30;;;18.50;99.90;;;;;;480638;247;29338;-78
2023/07/11 05:38:38;;;;;;;6.40;4.80;;;18.50;99.90;;;;;;492340;241;28925;-79
2023/07/11 05:40:40;;;;;;;7.10;4.47;;;18.60;99.90;;;;;;480643;247;28831;-79
2023/07/11 05:42:41;;;;;;;5.63;4.13;;;18.60;99.90;;;;;;492287;241;28859;-79
2023/07/11 05:44:42;;;;;;;6.47;4.40;;;18.60;99.90;;;;;;492275;241;28813;-79
2023/07/11 05:46:43;;;;;;;5.33;4.83;;;18.60;99.90;;;;;;480646;247;28836;-79
2023/07/11 05:48:45;;;;;;;7.00;4.90;;;18.60;99.90;;;;;;492315;241;28895;-78
2023/07/11 05:50:46;;;;;;;4.40;4.00;;;18.70;99.90;;;;;;480692;247;28730;-79
2023/07/11 05:52:47;;;;;;;6.57;4.77;;;18.80;99.90;;;;;;492306;241;28850;-79
2023/07/11 05:54:48;;;;;;;4.63;4.17;;;18.80;99.90;;;;;;492313;241;28817;-79
2023/07/11 05:56:50;;;;;;;4.87;4.33;;;18.90;99.90;;;;;;480631;247;29335;-79
2023/07/11 05:58:51;;;;;;;8.07;4.53;;;19.00;99.90;;;;;;492283;241;29475;-79
2023/07/11 06:00:52;;;;;;;4.93;4.30;;;19.10;99.90;;;;;;492182;241;29277;-79
2023/07/11 06:02:53;;;;;;;5.00;4.57;;;19.10;99.90;;;;;;492317;241;29361;-78
2023/07/11 06:04:55;;;;;;;5.10;4.60;;;19.20;99.90;;;;;;480643;247;28797;-79
2023/07/11 06:06:56;;;;;;;6.33;4.80;;;19.30;99.90;;;;;;492296;241;28852;-79
2023/07/11 06:08:57;;;;;;;4.83;4.30;;;19.30;99.90;;;;;;492327;241;28849;-79
2023/07/11 06:10:59;;;;;;;5.40;4.50;;;19.40;99.90;;;;;;480687;247;28737;-79
2023/07/11 06:13:00;;;;;;;4.93;4.03;;;19.40;99.90;;;;;;492336;241;29017;-79
2023/07/11 06:15:01;;;;;;;5.63;4.17;;;19.50;99.90;;;;;;492273;241;28824;-79
2023/07/11 06:17:02;;;;;;;4.43;4.03;;;19.60;99.90;;;;;;480535;247;28787;-79
2023/07/11 06:19:04;;;;;;;4.80;4.30;;;19.70;99.90;;;;;;492319;241;28878;-79
2023/07/11 06:21:05;;;;;;;4.47;4.07;;;19.80;99.90;;;;;;480672;247;28733;-78
2023/07/11 06:23:06;;;;;;;5.10;4.57;;;19.80;99.90;;;;;;492349;241;30126;-78
2023/07/11 06:25:07;;;;;;;4.90;4.13;;;20.00;99.90;;;;;;480687;247;29280;-78
2023/07/11 06:27:09;;;;;;;6.53;4.63;;;20.10;99.90;;;;;;492302;241;29316;-79
2023/07/11 06:29:10;;;;;;;5.43;4.43;;;20.20;99.90;;;;;;480664;247;28774;-79
2023/07/11 06:31:11;;;;;;;4.73;4.33;;;20.30;99.90;;;;;;492338;241;28888;-79
2023/07/11 06:33:12;;;;;;;5.33;4.60;;;20.40;99.90;;;;;;480660;247;28775;-80
2023/07/11 06:35:14;;;;;;;5.47;4.27;;;20.50;99.90;;;;;;492287;241;28817;-79
2023/07/11 06:37:15;;;;;;;5.27;4.60;;;20.60;99.90;;;;;;492278;241;28828;-79
2023/07/11 06:39:16;;;;;;;4.70;4.30;;;20.60;99.90;;;;;;480658;247;29115;-79
2023/07/11 06:41:17;;;;;;;7.23;4.27;;;20.70;99.90;;;;;;492323;241;28837;-79
2023/07/11 06:43:19;;;;;;;6.17;4.83;;;20.80;99.90;;;;;;480616;247;28842;-79
2023/07/11 06:45:20;;;;;;;4.53;4.03;;;20.90;99.90;;;;;;492283;241;28806;-80
2023/07/11 06:47:21;;;;;;;5.60;5.00;;;21.00;99.90;;;;;;480610;247;29256;-79
2023/07/11 06:49:22;;;;;;;4.80;4.40;;;21.10;99.90;;;;;;492283;241;29496;-80
2023/07/11 06:51:24;;;;;;;5.43;4.93;;;21.20;99.90;;;;;;480647;247;29193;-79
2023/07/11 06:53:25;;;;;;;5.03;4.00;;;21.30;99.90;;;;;;492308;241;28846;-80
2023/07/11 06:55:26;;;;;;;5.37;4.20;;;21.50;99.90;;;;;;480494;247;28713;-79
2023/07/11 06:57:27;;;;;;;5.43;4.10;;;21.60;99.90;;;;;;492274;241;28963;-79
2023/07/11 06:59:29;;;;;;;5.10;4.33;;;21.70;99.90;;;;;;492297;241;29291;-79
2023/07/11 07:01:30;;;;;;;4.37;3.80;;;21.80;99.90;;;;;;480647;247;28779;-80
2023/07/11 07:03:31;;;;;;;7.10;4.30;;;21.90;99.90;;;;;;492295;241;28842;-79
2023/07/11 07:05:32;;;;;;;4.50;4.10;;;22.00;99.90;;;;;;480614;247;28726;-80
2023/07/11 07:07:34;;;;;;;4.60;3.97;;;22.10;99.90;;;;;;492244;241;28923;-79
2023/07/11 07:09:35;;;;;;;4.30;3.90;;;22.20;99.90;;;;;;480634;247;29317;-80
2023/07/11 07:11:36;;;;;;;6.40;3.83;;;22.40;99.90;;;;;;492305;241;29272;-79
2023/07/11 07:13:37;;;;;;;6.03;5.00;;;22.50;99.90;;;;;;480625;247;29329;-80
2023/07/11 07:15:39;;;;;;;4.27;3.87;;;22.60;99.90;;;;;;492266;241;28808;-80
2023/07/11 07:17:40;;;;;;;4.70;4.20;;;22.70;99.90;;;;;;480656;247;28765;-80
2023/07/11 07:19:43;;;;;;;4.10;3.70;;;22.80;99.90;;;;;;492300;241;28938;-79
2023/07/11 07:21:42;;;;;;;5.23;4.53;;;22.90;99.90;;;;;;480521;247;28748;-79
2023/07/11 07:23:44;;;;;;;4.90;3.63;;;23.00;99.90;;;;;;492296;241;28888;-79
2023/07/11 07:25:45;;;;;;;5.10;4.20;;;23.10;99.90;;;;;;480639;247;28761;-79
2023/07/11 07:27:46;;;;;;;4.03;3.57;;;23.30;99.90;;;;;;492285;241;28850;-79
2023/07/11 07:29:47;;;;;;;4.80;4.40;;;23.50;99.90;;;;;;480586;247;28724;-80
2023/07/11 07:31:49;;;;;;;5.30;4.13;;;23.70;99.90;;;;;;492287;241;29396;-80
2023/07/11 07:33:50;;;;;;;5.40;4.40;;;23.80;99.90;;;;;;480684;247;29259;-80
2023/07/11 07:35:51;;;;;;;4.93;4.20;;;23.80;99.90;;;;;;492289;241;29381;-80
2023/07/11 07:37:52;;;;;;;5.80;4.47;;;23.90;99.90;;;;;;492299;241;29427;-80
2023/07/11 07:39:54;;;;;;;4.57;3.97;;;24.10;99.90;;;;;;480654;247;28717;-80
2023/07/11 07:41:55;;;;;;;5.50;4.47;;;24.20;99.90;;;;;;492288;241;28840;-80
2023/07/11 07:43:56;;;;;;;7.43;3.97;;;24.20;99.90;;;;;;492336;241;28937;-79
2023/07/11 07:45:57;;;;;;;3.87;3.57;;;24.40;99.90;;;;;;480648;247;28716;-79
2023/07/11 07:47:59;;;;;;;5.40;4.07;;;24.40;99.90;;;;;;492287;240;28998;-80
2023/07/11 07:50:00;;;;;;;4.80;4.30;;;24.40;99.90;;;;;;492271;241;28927;-79
2023/07/11 07:52:01;;;;;;;6.10;3.77;;;24.50;99.90;;;;;;480605;247;28812;-79
2023/07/11 07:54:02;;;;;;;5.33;4.60;;;24.60;99.90;;;;;;492295;241;28897;-80
2023/07/11 07:56:04;;;;;;;6.27;4.13;;;24.70;99.90;;;;;;492275;241;28825;-79
2023/07/11 07:58:05;;;;;;;4.37;3.97;;;24.70;99.90;;;;;;480614;247;29328;-79
2023/07/11 08:00:06;;;;;;;4.53;4.00;;;24.60;99.90;;;;;;492277;241;29286;-81
2023/07/11 08:02:07;;;;;;;6.37;4.50;;;24.80;99.90;;;;;;480617;247;29244;-80
2023/07/11 08:04:09;;;;;;;7.20;4.20;;;24.80;99.90;;;;;;492307;241;28846;-79
2023/07/11 08:06:10;;;;;;;4.93;4.40;;;24.90;99.90;;;;;;480627;247;28857;-80
2023/07/11 08:08:11;;;;;;;6.00;4.53;;;24.90;99.90;;;;;;492267;241;28942;-80
2023/07/11 08:10:12;;;;;;;5.63;4.17;;;24.90;99.90;;;;;;480609;247;28808;-80
2023/07/11 08:12:14;;;;;;;6.27;4.67;;;25.10;99.90;;;;;;492261;241;28904;-80
2023/07/11 08:14:15;;;;;;;5.27;4.60;;;25.20;99.90;;;;;;492289;241;28964;-80
2023/07/11 08:16:16;;;;;;;8.23;4.20;;;25.20;99.90;;;;;;480633;247;28808;-79
2023/07/11 08:18:17;;;;;;;8.40;4.10;;;25.40;99.90;;;;;;492293;241;28857;-80
2023/07/11 08:20:19;;;;;;;5.70;4.53;;;25.40;99.90;;;;;;492231;241;28814;-81
2023/07/11 08:22:20;;;;;;;8.77;5.07;;;25.60;99.90;;;;;;480566;247;29252;-80
2023/07/11 08:24:21;;;;;;;6.73;4.93;;;25.50;99.90;;;;;;492250;241;29920;-80
2023/07/11 08:26:22;;;;;;;7.50;4.67;;;25.50;99.90;;;;;;480601;247;29293;-81
2023/07/11 08:28:24;;;;;;;6.53;4.30;;;25.60;99.90;;;;;;492267;241;28902;-80
2023/07/11 08:30:25;;;;;;;9.33;4.60;;;25.70;99.90;;;;;;492292;241;28806;-80
2023/07/11 08:32:26;;;;;;;6.60;4.70;;;25.80;99.90;;;;;;480629;247;28745;-80
2023/07/11 08:34:27;;;;;;;4.53;4.13;;;25.80;99.90;;;;;;492279;241;28961;-80
2023/07/11 08:36:29;;;;;;;8.10;4.87;;;25.90;99.90;;;;;;480655;247;28740;-80
2023/07/11 08:38:30;;;;;;;5.80;5.13;;;25.90;99.90;;;;;;492310;241;28932;-81
2023/07/11 08:40:31;;;;;;;5.67;5.03;;;26.20;99.90;;;;;;480669;247;28737;-80
2023/07/11 08:42:33;;;;;;;6.20;5.00;;;26.10;99.90;;;;;;492306;241;28908;-81
2023/07/11 08:44:34;;;;;;;6.50;5.30;;;26.20;99.90;;;;;;480663;247;28813;-81
2023/07/11 08:46:35;;;;;;;6.00;4.67;;;26.20;99.90;;;;;;492297;241;29311;-80
2023/07/11 08:48:36;;;;;;;6.33;4.90;;;26.30;99.90;;;;;;492327;241;29424;-81
2023/07/11 08:50:38;;;;;;;5.50;4.87;;;26.30;99.90;;;;;;480623;247;28794;-80
2023/07/11 08:52:39;;;;;;;5.73;4.33;;;26.40;99.90;;;;;;492217;241;28880;-80
2023/07/11 08:54:40;;;;;;;9.00;4.83;;;26.40;99.90;;;;;;492270;241;28843;-81
2023/07/11 08:56:41;;;;;;;5.70;5.10;;;26.40;99.90;;;;;;480597;247;28774;-80
2023/07/11 08:58:43;;;;;;;5.70;5.00;;;26.30;99.90;;;;;;492312;241;28840;-80
2023/07/11 09:00:44;;;;;;;5.57;5.07;;;26.30;99.90;;;;;;480593;247;29204;-81
2023/07/11 09:02:46;;;;;;;6.17;4.83;;;26.40;99.90;;;;;;492263;241;29336;-80
2023/07/11 09:04:46;;;;;;;6.80;5.20;;;26.40;99.90;;;;;;480598;247;29221;-80
2023/07/11 09:06:47;;;;;;;8.43;5.33;;;26.40;99.90;;;;;;492266;241;28932;-79
2023/07/11 09:08:54;;;;;;;6.87;5.83;;;26.40;99.90;;;;;;492321;241;28926;-80
2023/07/11 09:10:50;;;;;;;6.70;5.37;;;26.60;99.90;;;;;;480329;247;28852;-80
2023/07/11 09:12:51;;;;;;;6.40;4.93;;;26.90;99.90;;;;;;492308;241;28867;-81
2023/07/11 09:14:53;;;;;;;7.80;6.00;;;27.20;99.90;;;;;;480645;247;28707;-80
2023/07/11 09:16:54;;;;;;;6.60;4.93;;;27.30;99.90;;;;;;492268;241;28988;-80
2023/07/11 09:18:55;;;;;;;7.27;5.10;;;27.30;99.90;;;;;;480673;247;29140;-80
2023/07/11 09:20:56;;;;;;;18.20;6.40;;;27.10;99.90;;;;;;492302;241;28917;-81
2023/07/11 09:22:58;;;;;;;7.00;5.63;;;26.80;99.90;;;;;;480655;247;28742;-80
2023/07/11 09:24:59;;;;;;;10.43;5.27;;;26.60;99.90;;;;;;492286;241;29261;-81
2023/07/11 09:27:00;;;;;;;8.53;6.07;;;26.60;99.90;;;;;;492305;241;29363;-80
2023/07/11 09:29:01;;;;;;;6.37;5.07;;;26.70;99.90;;;;;;480649;247;29438;-80
2023/07/11 09:31:03;;;;;;;5.40;4.90;;;26.60;99.90;;;;;;492278;241;28912;-80
2023/07/11 09:33:04;;;;;;;6.37;5.40;;;26.70;99.90;;;;;;492312;241;28848;-80
2023/07/11 09:35:05;;;;;;;5.93;5.20;;;26.70;99.90;;;;;;477408;247;36152;-80
2023/07/11 09:37:06;;;;;;;11.63;5.00;;;26.50;99.90;;;;;;492286;241;27511;-80
2023/07/11 09:39:08;;;;;;;10.90;5.63;;;26.50;99.90;;;;;;480611;247;29214;-80
2023/07/11 09:41:09;;;;;;;5.80;5.30;;;26.60;99.90;;;;;;491998;241;28906;-79
2023/07/11 09:43:10;;;;;;;5.63;5.13;;;26.60;99.90;;;;;;491875;241;28890;-80
2023/07/11 09:45:11;;;;;;;7.93;5.80;;;26.70;99.90;;;;;;480646;247;28850;-81
2023/07/11 09:47:13;;;;;;;13.10;5.47;;;26.80;99.90;;;;;;492304;241;29429;-80
2023/07/11 09:49:14;;;;;;;6.70;5.27;;;26.90;99.90;;;;;;480683;247;29435;-80
2023/07/11 09:51:15;;;;;;;9.00;5.43;;;27.00;99.90;;;;;;492334;241;29272;-80
2023/07/11 09:53:16;;;;;;;8.40;6.03;;;26.90;99.90;;;;;;492339;241;28831;-80
2023/07/11 09:55:18;;;;;;;5.83;5.33;;;26.70;99.90;;;;;;480656;247;28715;-80
2023/07/11 09:57:19;;;;;;;9.70;5.10;;;26.80;99.90;;;;;;492303;241;28854;-80
2023/07/11 09:59:20;;;;;;;8.27;6.03;;;26.70;99.90;;;;;;480657;247;28768;-80
2023/07/11 10:01:21;;;;;;;7.10;5.63;;;26.90;99.90;;;;;;492320;241;28828;-80
2023/07/11 10:03:23;;;;;;;7.17;5.33;;;26.90;99.90;;;;;;492311;241;28936;-80
2023/07/11 10:05:24;;;;;;;6.50;4.80;;;27.00;99.90;;;;;;480661;247;28715;-81
2023/07/11 10:07:28;;;;;;;8.10;5.20;;;27.20;99.90;;;;;;492306;241;28850;-79
2023/07/11 10:09:26;;;;;;;6.70;5.43;;;27.30;99.90;;;;;;480455;247;30063;-80
2023/07/11 10:11:28;;;;;;;6.77;5.57;;;27.20;99.90;;;;;;492291;241;29363;-80
2023/07/11 10:13:29;;;;;;;7.80;4.87;;;27.20;99.90;;;;;;480673;247;29265;-80
2023/07/11 10:15:30;;;;;;;8.07;5.90;;;27.30;99.90;;;;;;492303;241;29413;-81
2023/07/11 10:17:31;;;;;;;8.17;5.70;;;27.20;99.90;;;;;;492287;241;28954;-80
2023/07/11 10:19:33;;;;;;;5.77;5.10;;;27.30;99.90;;;;;;480639;247;28845;-80
2023/07/11 10:21:34;;;;;;;8.47;6.17;;;27.40;99.90;;;;;;492289;241;28868;-81
2023/07/11 10:23:35;;;;;;;7.97;5.93;;;27.60;99.90;;;;;;492321;241;28850;-81
2023/07/11 10:25:36;;;;;;;7.63;5.53;;;27.60;99.90;;;;;;480654;247;28861;-80
2023/07/11 10:27:38;;;;;;;5.97;5.13;;;27.50;99.90;;;;;;492296;241;28847;-81
2023/07/11 10:29:39;;;;;;;6.63;5.53;;;27.60;99.90;;;;;;480631;247;28724;-80